createdAt,value
2022-12-04T00:00:49.898Z,0.35
2022-12-04T00:05:52.672Z,0.41
2022-12-04T00:10:57.880Z,0.52
2022-12-04T00:16:01.096Z,0.55
2022-12-04T00:21:05.807Z,0.52
2022-12-04T00:26:12.406Z,0.51
2022-12-04T00:31:18.041Z,0.48
2022-12-04T00:36:22.985Z,0.29
2022-12-04T00:41:29.116Z,0.47
2022-12-04T00:46:32.412Z,0.35
2022-12-04T00:51:35.252Z,0.34
2022-12-04T00:56:40.246Z,0.32
2022-12-04T01:01:43.053Z,0.48
2022-12-04T01:06:47.681Z,0.44
2022-12-04T01:11:51.849Z,0.51
2022-12-04T01:16:54.653Z,0.39
2022-12-04T01:21:57.439Z,0.49
2022-12-04T01:27:01.585Z,0.49
2022-12-04T01:32:04.715Z,0.56
2022-12-04T01:37:07.652Z,0.34
2022-12-04T01:42:15.348Z,0.51
2022-12-04T01:47:18.074Z,0.60
2022-12-04T01:52:24.644Z,0.62
2022-12-04T01:57:32.455Z,0.69
2022-12-04T02:02:37.085Z,0.72
2022-12-04T02:07:41.133Z,0.71
2022-12-04T02:12:53.650Z,0.57
2022-12-04T02:18:03.868Z,0.49
2022-12-04T02:23:30.490Z,0.60
2022-12-04T02:28:39.660Z,0.50
2022-12-04T02:33:46.741Z,0.47
2022-12-04T02:38:56.324Z,0.48
2022-12-04T02:44:08.426Z,0.37
2022-12-04T02:49:17.079Z,0.56
2022-12-04T02:54:26.082Z,0.68
2022-12-04T02:59:34.849Z,0.46
2022-12-04T03:04:40.560Z,0.58
2022-12-04T03:09:46.348Z,0.70
2022-12-04T03:14:55.123Z,0.50
2022-12-04T03:20:03.523Z,0.65
2022-12-04T03:25:06.876Z,0.58
2022-12-04T03:30:15.253Z,0.77
2022-12-04T03:35:20.056Z,0.86
2022-12-04T03:40:27.053Z,0.76
2022-12-04T03:45:40.803Z,0.66
2022-12-04T03:50:51.293Z,0.76
2022-12-04T03:56:03.057Z,0.98
2022-12-04T04:01:10.938Z,0.94
2022-12-04T04:06:18.542Z,1.06
2022-12-04T04:11:28.184Z,1.05
2022-12-04T04:16:54.016Z,0.96
2022-12-04T04:22:16.521Z,0.83
2022-12-04T04:27:19.302Z,0.97
2022-12-04T04:32:32.093Z,0.85
2022-12-04T04:37:41.836Z,0.89
2022-12-04T04:42:49.742Z,0.84
2022-12-04T04:47:59.535Z,0.84
2022-12-04T04:53:06.088Z,0.85
2022-12-04T04:58:09.804Z,0.95
2022-12-04T05:03:13.997Z,1.00
2022-12-04T05:08:16.869Z,0.96
2022-12-04T05:13:20.456Z,1.04
2022-12-04T05:18:24.604Z,1.12
2022-12-04T05:23:27.409Z,0.94
2022-12-04T05:28:30.292Z,1.12
2022-12-04T05:33:34.427Z,1.00
2022-12-04T05:38:38.344Z,1.11
2022-12-04T05:43:41.052Z,1.02
2022-12-04T05:48:45.182Z,1.07
2022-12-04T05:53:48.000Z,1.02
2022-12-04T05:58:50.918Z,1.13
2022-12-04T06:03:57.459Z,1.15
2022-12-04T06:09:01.541Z,1.19
2022-12-04T06:14:06.693Z,1.17
2022-12-04T06:19:14.544Z,1.27
2022-12-04T06:24:21.304Z,1.31
2022-12-04T06:29:25.542Z,1.25
2022-12-04T06:34:29.921Z,1.35
2022-12-04T06:39:32.886Z,1.42
2022-12-04T06:44:35.733Z,1.40
2022-12-04T06:49:40.239Z,1.26
2022-12-04T06:54:45.156Z,1.47
2022-12-04T06:59:48.293Z,1.45
2022-12-04T07:04:56.224Z,1.25
2022-12-04T07:09:59.068Z,1.44
2022-12-04T07:15:02.001Z,1.55
2022-12-04T07:20:12.973Z,1.51
2022-12-04T07:25:16.004Z,1.39
2022-12-04T07:30:18.997Z,1.50
2022-12-04T07:35:24.225Z,1.41
2022-12-04T07:40:27.028Z,1.45
2022-12-04T07:45:30.889Z,1.40
2022-12-04T07:50:36.283Z,1.47
2022-12-04T07:55:40.378Z,1.42
2022-12-04T08:00:43.683Z,1.80
2022-12-04T08:05:47.984Z,1.77
2022-12-04T08:10:50.773Z,1.80
2022-12-04T08:15:53.754Z,1.81
2022-12-04T08:21:04.222Z,1.82
2022-12-04T08:26:08.112Z,1.68
2022-12-04T08:31:14.339Z,1.86
2022-12-04T08:36:20.272Z,1.80
2022-12-04T08:41:25.983Z,1.77
2022-12-04T08:46:29.272Z,1.79
2022-12-04T08:51:35.745Z,1.85
2022-12-04T08:56:38.888Z,2.26
2022-12-04T09:01:41.683Z,2.36
2022-12-04T09:06:45.894Z,2.49
2022-12-04T09:11:50.676Z,2.63
2022-12-04T09:16:53.780Z,2.75
2022-12-04T09:21:57.973Z,2.60
2022-12-04T09:27:12.925Z,2.49
2022-12-04T09:32:17.466Z,2.67
2022-12-04T09:37:21.552Z,2.53
2022-12-04T09:42:38.517Z,2.70
2022-12-04T09:47:45.449Z,2.73
2022-12-04T09:53:00.390Z,3.10
2022-12-04T09:58:07.164Z,2.76
2022-12-04T10:03:15.699Z,3.06
2022-12-04T10:08:23.844Z,3.18
2022-12-04T10:13:38.617Z,3.05
2022-12-04T10:18:49.275Z,3.19
2022-12-04T10:24:02.389Z,3.20
2022-12-04T10:29:08.932Z,3.26
2022-12-04T10:34:17.602Z,3.06
2022-12-04T10:39:26.648Z,3.27
2022-12-04T10:44:29.476Z,3.44
2022-12-04T10:49:34.134Z,2.98
2022-12-04T10:54:44.403Z,3.32
2022-12-04T10:59:52.474Z,3.28
2022-12-04T11:04:58.006Z,3.19
2022-12-04T11:10:05.288Z,3.30
2022-12-04T11:15:16.108Z,3.33
2022-12-04T11:20:21.824Z,3.43
2022-12-04T11:25:28.220Z,3.21
2022-12-04T11:30:35.368Z,3.22
2022-12-04T11:35:38.238Z,3.29
2022-12-04T11:40:48.255Z,3.24
2022-12-04T11:45:58.876Z,3.56
2022-12-04T11:51:10.173Z,3.54
2022-12-04T11:56:21.689Z,3.50
2022-12-04T12:01:37.514Z,3.09
2022-12-04T12:06:49.537Z,3.30
2022-12-04T12:12:02.571Z,3.21
2022-12-04T12:17:16.702Z,3.47
2022-12-04T12:22:37.552Z,3.68
2022-12-04T12:27:56.091Z,3.54
2022-12-04T12:33:09.293Z,3.66
2022-12-04T12:38:16.062Z,3.57
2022-12-04T12:43:30.156Z,3.58
2022-12-04T12:48:41.176Z,3.63
2022-12-04T12:53:48.912Z,3.65
2022-12-04T12:58:57.288Z,3.74
2022-12-04T13:04:08.219Z,3.72
2022-12-04T13:09:19.471Z,3.66
2022-12-04T13:14:23.580Z,3.77
2022-12-04T13:19:29.591Z,3.78
2022-12-04T13:24:57.626Z,3.79
2022-12-04T13:30:11.679Z,3.76
2022-12-04T13:35:23.188Z,3.92
2022-12-04T13:40:36.936Z,3.87
2022-12-04T13:45:41.968Z,3.77
2022-12-04T13:50:44.851Z,3.80
2022-12-04T13:55:57.174Z,3.83
2022-12-04T14:01:13.804Z,3.76
2022-12-04T14:06:29.580Z,3.88
2022-12-04T14:11:56.470Z,3.78
2022-12-04T14:17:01.529Z,3.73
2022-12-04T14:22:05.188Z,3.85
2022-12-04T14:27:34.345Z,3.90
2022-12-04T14:32:44.062Z,3.93
2022-12-04T14:37:57.804Z,4.02
2022-12-04T14:43:00.946Z,3.86
2022-12-04T14:48:18.931Z,4.05
2022-12-04T14:53:32.274Z,3.94
2022-12-04T14:58:38.903Z,3.96
2022-12-04T15:03:47.338Z,3.87
2022-12-04T15:08:50.927Z,4.02
2022-12-04T15:13:53.909Z,4.08
2022-12-04T15:18:59.854Z,4.11
2022-12-04T15:24:08.581Z,4.12
2022-12-04T15:29:19.034Z,3.88
2022-12-04T15:34:37.237Z,3.93
2022-12-04T15:39:40.944Z,3.95
2022-12-04T15:44:52.624Z,4.08
2022-12-04T15:50:09.796Z,3.98
2022-12-04T15:55:18.296Z,4.00
2022-12-04T16:00:25.096Z,3.88
2022-12-04T16:05:37.495Z,4.10
2022-12-04T16:10:41.075Z,4.06
2022-12-04T16:15:45.136Z,4.16
2022-12-04T16:20:49.800Z,4.33
2022-12-04T16:25:53.828Z,4.06
2022-12-04T16:31:00.072Z,4.20
2022-12-04T16:36:04.600Z,4.25
2022-12-04T16:41:12.671Z,4.40
2022-12-04T16:46:17.563Z,4.39
2022-12-04T16:51:23.894Z,4.23
2022-12-04T16:56:26.841Z,4.35
2022-12-04T17:01:36.345Z,4.41
2022-12-04T17:06:40.922Z,4.52
2022-12-04T17:11:43.915Z,4.51
2022-12-04T17:16:47.431Z,4.41
2022-12-04T17:21:51.735Z,4.42
2022-12-04T17:26:54.910Z,4.35
2022-12-04T17:31:58.043Z,4.60
2022-12-04T17:37:02.711Z,4.60
2022-12-04T17:42:05.683Z,4.73
2022-12-04T17:47:08.522Z,4.54
2022-12-04T17:52:12.682Z,4.68
2022-12-04T17:57:16.847Z,4.54
2022-12-04T18:02:22.796Z,4.84
2022-12-04T18:07:27.123Z,4.65
2022-12-04T18:12:32.877Z,4.84
2022-12-04T18:17:38.113Z,4.82
2022-12-04T18:22:42.409Z,4.72
2022-12-04T18:27:45.228Z,4.77
2022-12-04T18:32:52.606Z,4.79
2022-12-04T18:38:15.223Z,4.77
2022-12-04T18:43:36.171Z,4.60
2022-12-04T18:48:56.745Z,4.72
2022-12-04T18:54:16.309Z,4.86
2022-12-04T18:59:30.709Z,4.88
2022-12-04T19:04:34.218Z,4.89
2022-12-04T19:15:17.509Z,4.69
2022-12-04T19:20:30.684Z,4.84
2022-12-04T19:25:37.739Z,4.74
2022-12-04T19:30:40.806Z,4.71
2022-12-04T19:35:44.159Z,4.76
2022-12-04T19:40:51.560Z,4.88
2022-12-04T19:45:57.359Z,4.78
2022-12-04T19:51:04.693Z,4.81
2022-12-04T19:56:12.617Z,4.87
2022-12-04T20:01:18.083Z,4.80
2022-12-04T20:06:24.539Z,4.88
2022-12-04T20:11:30.259Z,4.72
2022-12-04T20:16:34.917Z,4.78
2022-12-04T20:21:37.858Z,4.82
2022-12-04T20:26:51.314Z,4.67
2022-12-04T20:38:04.701Z,4.76
2022-12-04T20:43:24.127Z,4.69
2022-12-04T20:48:52.847Z,4.60
2022-12-04T20:54:17.874Z,4.73
2022-12-04T21:19:31.168Z,4.83
2022-12-04T21:24:38.850Z,4.81
2022-12-04T21:30:09.813Z,4.66
2022-12-04T21:35:15.671Z,4.75
2022-12-04T21:40:21.780Z,4.72
2022-12-04T21:45:36.046Z,4.65
2022-12-04T21:50:38.989Z,4.72
2022-12-04T21:55:47.986Z,4.75
2022-12-04T22:00:55.343Z,4.65
2022-12-04T22:06:01.177Z,4.67
2022-12-04T22:11:06.986Z,4.75
2022-12-04T22:16:17.297Z,4.66
2022-12-04T22:21:20.168Z,4.71
2022-12-04T22:26:23.102Z,4.78
2022-12-04T22:31:29.483Z,4.80
2022-12-04T22:36:33.609Z,4.70
2022-12-04T22:41:36.379Z,4.74
2022-12-04T22:46:40.491Z,4.75
2022-12-04T22:51:43.330Z,4.59
2022-12-04T22:56:46.196Z,4.55
2022-12-04T23:01:50.316Z,4.70
2022-12-04T23:06:53.351Z,4.49
2022-12-04T23:11:57.484Z,4.64
2022-12-04T23:17:01.766Z,4.64
2022-12-04T23:22:04.645Z,4.69
2022-12-04T23:27:07.337Z,4.70
2022-12-04T23:32:11.526Z,4.68
2022-12-04T23:37:14.291Z,4.87
2022-12-04T23:42:17.001Z,4.59
2022-12-04T23:47:21.182Z,4.78
2022-12-04T23:52:24.264Z,4.94
2022-12-04T23:57:29.657Z,4.83
